Clear Lake, IA (50428)

5:19 AM CDT on September 05, 2015 (GMT -0500)
KIACLEAR2 | | Change Station
CLOSE
Current Station
Personal Weather Station
Location: Clear Lake, IA
Elevation: 1263 ft
Nearby Weather Stations

Elev 1263 ft 43.13 °N, 93.38 °W | Updated 1 minute ago

Clear
Clear
69.7 °F
Feels Like 69.7 °F
N
0.0
Wind Variable Wind from SE
Gusts 1.0 mph

Today
High -- | Low -- °F
--% Chance of Precip.
Yesterday
High -- | Low -- °F
Precip. -- in
6:41 AM 7:41 PM
Waning Gibbous, 50% visible
Pressure 29.96 in
Visibility 9.0 miles
Clouds Clear
Dew Point 64 °F
Humidity 81%
Rainfall 0.00 in
Snow Depth Not available.
UV 0 out of 12
Pollen 10.10 out of 12
Air Quality Not available.
Flu Activity Not available.
METAR KMCW 050953Z AUTO 16008KT 9SM CLR 22/21 A3000 RMK AO2 SLP145 T02170206 TSNO $
Pressure 29.96 in
Visibility 9.0 miles
Clouds Clear
Dew Point 64 °F
Humidity 81%
Rainfall 0.00 in
Snow Depth Not available.
UV 0 out of 12
Pollen 10.10 out of 12
Air Quality Not available.
Flu Activity Not available.
METAR KMCW 050953Z AUTO 16008KT 9SM CLR 22/21 A3000 RMK AO2 SLP145 T02170206 TSNO $

10-Day Weather Forecast

×

Almanac

Astronomy

Sep. 05, 2015 Rise Set
Actual Time
Civil Twilight
Nautical Twilight
Astronomical Twilight
Moon
Length of Visible Light
Length of Day
Tomorrow will be .
, % of the Moon is Illuminated

Today's Extremes

State Highs State Lows

Community

WunderPhotos

Upload Photos

1,852,440 photos uploaded!

WunderBlogs® & News

Nearby

Air Quality

  Air Quality AQ Index Pollutant
Not available.

Snow Depth

Station Depth Elevation

Earthquake Activity

City Distance Mag. Time & Date
Minimum magnitude displayed is 2.5.

Coastal Water Temperatures

Place Temperature

Stations

Nearby Weather Stations

Station Location Temp. Windchill Dew Point Humidity Wind Precip. Elev Updated Type